Hamburg, PA (19526)

12:00 PM EST on March 06, 2015 (GMT -0500)
Hamburg | Change Station
CLOSE
Current Station
Personal Weather Station
Location: Hamburg, PA
Elevation: 416 ft
Nearby Weather Stations

Elev 416 ft 40.56 °N, 75.98 °W | Updated 20 minutes ago

Clear
Clear
18.6 °F
Feels Like 19 °F
N
1.0
Wind Variable Wind from NW
Gusts 1.0 mph

Today
High -- | Low -- °F
--% Chance of Precip.
Yesterday
High -- | Low -- °F
Precip. -- in
6:30 AM 6:00 PM
Full, 99% visible
Pressure 30.58 in
Visibility 10.0 miles
Clouds Clear
Windchill 19 °F
Dew Point 8 °F
Humidity 62%
Rainfall in
Snow Depth Not available.
UV 6 out of 12
Pollen .90 out of 12
Air Quality Not available.
Flu Activity Not available.
METAR KRDG 061654Z AUTO 00000KT 10SM CLR M08/M16 A3055 RMK AO2 SLP356 T10781161

More Conditions Fewer Conditions

Pressure 30.58 in
Visibility 10.0 miles
Clouds Clear
Windchill 19 °F
Dew Point 8 °F
Humidity 62%
Rainfall in
Snow Depth Not available.
UV 6 out of 12
Pollen .90 out of 12
Air Quality Not available.
Flu Activity Not available.
METAR KRDG 061654Z AUTO 00000KT 10SM CLR M08/M16 A3055 RMK AO2 SLP356 T10781161

More Conditions Fewer Conditions

10-Day Weather Forecast

Almanac

Astronomy

Mar. 06, 2015 Rise Set
Actual Time
Civil Twilight
Nautical Twilight
Astronomical Twilight
Moon
Length of Visible Light
Length of Day
Tomorrow will be .
, % of the Moon is Illuminated

Today's Extremes

State Highs State Lows

Community

WunderPhotos

Upload Photos

1,803,337 photos uploaded!

WunderBlogs® & News

Nearby

Air Quality

  Air Quality AQ Index Pollutant
Not available.

Snow Depth

Station Depth Elevation

Earthquake Activity

City Distance Mag. Time & Date
Minimum magnitude displayed is 2.5.

Coastal Water Temperatures

Place Temperature

Nearby Weather Stations